createdAt,value
2017-10-11T00:01:27.285Z,14.40
2017-10-11T00:03:57.770Z,15.40
2017-10-11T00:06:25.322Z,14.67
2017-10-11T00:08:52.846Z,13.13
2017-10-11T00:11:21.161Z,14.43
2017-10-11T00:13:48.686Z,16.00
2017-10-11T00:16:16.993Z,13.00
2017-10-11T00:18:44.513Z,13.73
2017-10-11T00:21:12.029Z,13.50
2017-10-11T00:23:39.588Z,13.70
2017-10-11T00:26:07.104Z,13.47
2017-10-11T00:28:34.650Z,13.80
2017-10-11T00:31:02.169Z,14.53
2017-10-11T00:33:29.700Z,13.60
2017-10-11T00:35:57.984Z,10.63
2017-10-11T00:38:26.283Z,12.73
2017-10-11T00:40:53.805Z,13.33
2017-10-11T00:43:22.101Z,12.30
2017-10-11T00:45:49.621Z,12.30
2017-10-11T00:48:17.157Z,12.50
2017-10-11T00:50:44.680Z,12.27
2017-10-11T00:53:12.977Z,11.67
2017-10-11T00:55:40.489Z,10.77
2017-10-11T00:58:08.797Z,13.43
2017-10-11T01:00:36.323Z,12.07
2017-10-11T01:03:03.845Z,11.20
2017-10-11T01:05:32.150Z,11.90
2017-10-11T01:07:59.672Z,12.63
2017-10-11T01:10:27.200Z,11.30
2017-10-11T01:12:55.481Z,10.83
2017-10-11T01:15:23.795Z,11.93
2017-10-11T01:17:51.323Z,11.93
2017-10-11T01:20:18.853Z,10.87
2017-10-11T01:22:46.373Z,11.93
2017-10-11T01:25:13.904Z,12.03
2017-10-11T01:27:41.429Z,11.50
2017-10-11T01:30:08.967Z,11.70
2017-10-11T01:32:36.486Z,10.60
2017-10-11T01:35:04.021Z,11.30
2017-10-11T01:37:32.309Z,11.73
2017-10-11T01:40:00.588Z,11.03
2017-10-11T01:42:28.885Z,12.23
2017-10-11T01:44:56.398Z,13.00
2017-10-11T01:47:23.941Z,11.63
2017-10-11T01:49:51.452Z,12.83
2017-10-11T01:52:19.754Z,13.40
2017-10-11T01:54:47.272Z,13.13
2017-10-11T01:57:15.575Z,12.53
2017-10-11T01:59:43.093Z,14.00
2017-10-11T02:02:10.624Z,13.97
2017-10-11T02:04:38.137Z,12.33
2017-10-11T02:07:06.436Z,14.87
2017-10-11T02:09:33.962Z,15.73
2017-10-11T02:12:02.282Z,15.77
2017-10-11T02:14:29.800Z,14.67
2017-10-11T02:16:58.084Z,15.90
2017-10-11T02:19:26.380Z,16.53
2017-10-11T02:21:53.901Z,14.83
2017-10-11T02:24:21.439Z,15.47
2017-10-11T02:26:48.966Z,17.83
2017-10-11T02:29:16.501Z,16.20
2017-10-11T02:31:44.786Z,17.00
2017-10-11T02:34:13.697Z,19.03
2017-10-11T02:36:42.352Z,20.77
2017-10-11T02:39:11.240Z,21.53
2017-10-11T02:41:40.104Z,22.70
2017-10-11T02:44:08.980Z,19.73
2017-10-11T02:46:37.845Z,23.53
2017-10-11T02:49:06.728Z,23.03
2017-10-11T02:51:35.590Z,22.03
2017-10-11T02:54:04.473Z,21.97
2017-10-11T02:56:33.335Z,24.10
2017-10-11T02:59:02.192Z,21.07
2017-10-11T03:01:31.073Z,22.37
2017-10-11T03:03:59.937Z,22.60
2017-10-11T03:06:28.818Z,22.97
2017-10-11T03:08:57.685Z,23.60
2017-10-11T03:11:26.569Z,23.10
2017-10-11T03:13:55.432Z,21.33
2017-10-11T03:16:23.730Z,23.37
2017-10-11T03:18:51.249Z,22.40
2017-10-11T03:21:18.780Z,21.97
2017-10-11T03:23:46.306Z,21.90
2017-10-11T03:26:13.841Z,23.60
2017-10-11T03:28:42.120Z,22.57
2017-10-11T03:31:10.423Z,22.57
2017-10-11T03:33:37.940Z,20.77
2017-10-11T03:36:05.473Z,22.03
2017-10-11T03:38:32.988Z,21.33
2017-10-11T03:41:00.513Z,20.73
2017-10-11T03:43:28.048Z,22.37
2017-10-11T03:45:55.565Z,22.57
2017-10-11T03:48:23.112Z,21.53
2017-10-11T03:50:51.396Z,20.53
2017-10-11T03:53:19.701Z,21.57
2017-10-11T03:55:47.214Z,20.87
2017-10-11T03:58:14.767Z,23.33
2017-10-11T04:00:42.285Z,17.00
2017-10-11T04:03:09.825Z,19.47
2017-10-11T04:05:37.340Z,20.77
2017-10-11T04:08:04.905Z,19.50
2017-10-11T04:10:32.442Z,20.40
2017-10-11T04:12:59.985Z,18.77
2017-10-11T04:15:27.501Z,18.17
2017-10-11T04:17:55.789Z,18.23
2017-10-11T04:20:24.093Z,18.40
2017-10-11T04:22:51.608Z,15.53
2017-10-11T04:25:19.137Z,16.77
2017-10-11T04:27:46.656Z,18.47
2017-10-11T04:30:14.188Z,17.10
2017-10-11T04:32:41.705Z,18.60
2017-10-11T04:35:09.238Z,18.27
2017-10-11T04:37:36.752Z,17.77
2017-10-11T04:40:04.286Z,16.50
2017-10-11T04:42:31.808Z,18.27
2017-10-11T04:45:00.106Z,16.47
2017-10-11T04:47:27.629Z,17.93
2017-10-11T04:49:55.924Z,15.77
2017-10-11T04:52:23.445Z,17.87
2017-10-11T04:54:50.966Z,16.80
2017-10-11T04:57:18.503Z,18.33
2017-10-11T04:59:46.021Z,17.70
2017-10-11T05:02:13.643Z,17.77
2017-10-11T05:04:41.168Z,18.90
2017-10-11T05:07:09.474Z,15.97
2017-10-11T05:09:36.998Z,17.43
2017-10-11T05:12:05.301Z,16.17
2017-10-11T05:14:32.826Z,16.40
2017-10-11T05:17:00.357Z,17.83
2017-10-11T05:19:27.868Z,19.30
2017-10-11T05:21:56.170Z,18.87
2017-10-11T05:24:23.693Z,18.67
2017-10-11T05:26:51.998Z,17.07
2017-10-11T05:29:19.624Z,17.30
2017-10-11T05:31:47.186Z,16.20
2017-10-11T05:34:14.725Z,18.20
2017-10-11T05:36:43.584Z,15.50
2017-10-11T05:39:12.461Z,17.00
2017-10-11T05:41:41.323Z,17.10
2017-10-11T05:44:10.209Z,18.07
2017-10-11T05:46:39.071Z,17.23
2017-10-11T05:49:07.961Z,17.63
2017-10-11T05:51:36.828Z,18.37
2017-10-11T05:54:05.709Z,17.80
2017-10-11T05:56:34.579Z,17.50
2017-10-11T05:59:03.464Z,16.60
2017-10-11T06:01:32.328Z,16.93
2017-10-11T06:04:01.209Z,17.87
2017-10-11T06:06:30.095Z,16.73
2017-10-11T06:08:58.977Z,17.57
2017-10-11T06:11:27.849Z,17.47
2017-10-11T06:13:56.712Z,16.83
2017-10-11T06:16:25.587Z,16.60
2017-10-11T06:18:54.444Z,15.43
2017-10-11T06:21:23.333Z,15.47
2017-10-11T06:23:52.200Z,15.50
2017-10-11T06:26:21.084Z,17.37
2017-10-11T06:28:49.949Z,15.37
2017-10-11T06:31:18.831Z,15.50
2017-10-11T06:33:47.687Z,15.67
2017-10-11T06:36:16.572Z,15.07
2017-10-11T06:38:45.440Z,15.10
2017-10-11T06:41:14.320Z,15.67
2017-10-11T06:43:43.184Z,15.70
2017-10-11T06:46:12.061Z,17.50
2017-10-11T06:48:40.920Z,14.13
2017-10-11T06:51:09.800Z,13.80
2017-10-11T06:53:38.662Z,14.20
2017-10-11T06:56:07.531Z,12.10
2017-10-11T06:58:36.408Z,11.60
2017-10-11T07:01:05.284Z,13.27
2017-10-11T07:03:34.192Z,11.77
2017-10-11T07:06:03.195Z,11.17
2017-10-11T07:08:32.147Z,11.13
2017-10-11T07:11:01.025Z,11.23
2017-10-11T07:13:29.884Z,12.23
2017-10-11T07:15:58.764Z,12.10
2017-10-11T07:18:27.634Z,10.33
2017-10-11T07:20:56.497Z,11.70
2017-10-11T07:23:25.372Z,10.23
2017-10-11T07:25:54.263Z,11.00
2017-10-11T07:28:23.156Z,11.83
2017-10-11T07:30:52.017Z,10.70
2017-10-11T07:33:20.888Z,10.73
2017-10-11T07:35:49.747Z,10.87
2017-10-11T07:38:18.624Z,11.07
2017-10-11T07:40:47.486Z,10.00
2017-10-11T07:43:16.364Z,10.13
2017-10-11T07:45:45.225Z,9.53
2017-10-11T07:48:14.104Z,10.30
2017-10-11T07:50:42.970Z,9.67
2017-10-11T07:53:11.855Z,8.50
2017-10-11T07:55:40.709Z,9.43
2017-10-11T07:58:09.576Z,8.17
2017-10-11T08:00:38.439Z,7.57
2017-10-11T08:03:07.316Z,7.73
2017-10-11T08:05:36.172Z,7.00
2017-10-11T08:08:05.041Z,7.67
2017-10-11T08:10:33.988Z,7.70
2017-10-11T08:13:02.903Z,7.03
2017-10-11T08:15:31.756Z,7.40
2017-10-11T08:18:00.617Z,7.50
2017-10-11T08:20:29.497Z,6.97
2017-10-11T08:22:58.355Z,7.27
2017-10-11T08:25:27.219Z,5.93
2017-10-11T08:27:56.073Z,6.17
2017-10-11T08:30:24.952Z,6.83
2017-10-11T08:32:53.885Z,6.07
2017-10-11T08:35:22.765Z,4.93
2017-10-11T08:37:51.633Z,5.67
2017-10-11T08:40:20.520Z,4.87
2017-10-11T08:42:49.373Z,4.83
2017-10-11T08:45:18.248Z,3.97
2017-10-11T08:47:47.107Z,5.00
2017-10-11T08:50:15.976Z,3.57
2017-10-11T08:52:44.833Z,4.13
2017-10-11T08:55:13.692Z,4.10
2017-10-11T08:57:42.570Z,3.90
2017-10-11T09:00:11.429Z,4.70
2017-10-11T09:02:40.312Z,3.80
2017-10-11T09:05:09.256Z,5.40
2017-10-11T09:07:38.132Z,4.10
2017-10-11T09:10:06.997Z,4.33
2017-10-11T09:12:35.874Z,3.83
2017-10-11T09:15:04.728Z,4.23
2017-10-11T09:17:33.605Z,4.50
2017-10-11T09:20:02.469Z,4.53
2017-10-11T09:22:31.354Z,4.80
2017-10-11T09:25:00.213Z,5.23
2017-10-11T09:27:29.092Z,4.97
2017-10-11T09:29:57.959Z,6.03
2017-10-11T09:32:26.845Z,5.27
2017-10-11T09:34:55.704Z,4.70
2017-10-11T09:37:24.561Z,4.60
2017-10-11T09:39:53.505Z,4.73
2017-10-11T09:42:22.368Z,5.53
2017-10-11T09:44:51.257Z,4.83
2017-10-11T09:47:20.113Z,5.67
2017-10-11T09:49:48.990Z,4.53
2017-10-11T09:52:17.849Z,5.33
2017-10-11T09:54:46.724Z,5.57
2017-10-11T09:57:15.598Z,5.20
2017-10-11T09:59:44.489Z,4.40
2017-10-11T10:02:13.341Z,4.80
2017-10-11T10:04:42.285Z,5.03
2017-10-11T10:07:11.143Z,6.43
2017-10-11T10:09:40.012Z,5.30
2017-10-11T10:12:07.527Z,4.87
2017-10-11T10:14:35.068Z,5.20
2017-10-11T10:17:03.944Z,4.80
2017-10-11T10:19:32.828Z,5.60
2017-10-11T10:22:01.675Z,5.10
2017-10-11T10:24:30.528Z,5.37
2017-10-11T10:26:59.405Z,4.17
2017-10-11T10:29:28.267Z,3.90
2017-10-11T10:31:57.160Z,4.30
2017-10-11T10:34:26.041Z,3.70
2017-10-11T10:36:54.912Z,4.80
2017-10-11T10:39:23.782Z,4.50
2017-10-11T10:41:52.648Z,4.67
2017-10-11T10:44:21.505Z,4.83
2017-10-11T10:46:50.376Z,4.90
2017-10-11T10:49:19.236Z,3.80
2017-10-11T10:51:48.182Z,5.60
2017-10-11T10:54:17.057Z,4.80
2017-10-11T10:56:45.933Z,5.90
2017-10-11T10:59:14.789Z,5.90
2017-10-11T11:01:43.652Z,6.33
2017-10-11T11:04:12.524Z,6.43
2017-10-11T11:06:41.388Z,6.63
2017-10-11T11:09:10.334Z,6.30
2017-10-11T11:11:39.277Z,6.87
2017-10-11T11:14:08.153Z,7.40
2017-10-11T11:16:37.008Z,7.50
2017-10-11T11:19:05.885Z,7.30
2017-10-11T11:21:34.749Z,7.43
2017-10-11T11:24:03.625Z,9.30
2017-10-11T11:26:32.485Z,8.27
2017-10-11T11:29:01.360Z,7.03
2017-10-11T11:31:30.267Z,8.00
2017-10-11T11:33:59.136Z,8.13
2017-10-11T11:36:27.989Z,8.00
2017-10-11T11:38:56.949Z,8.10
2017-10-11T11:41:25.804Z,7.50
2017-10-11T11:43:54.683Z,9.70
2017-10-11T11:46:23.544Z,7.77
2017-10-11T11:48:52.402Z,8.50
2017-10-11T11:51:21.317Z,8.83
2017-10-11T11:53:50.173Z,11.53
2017-10-11T11:56:19.044Z,9.50
2017-10-11T11:58:47.905Z,11.50
2017-10-11T12:01:16.776Z,9.17
2017-10-11T12:03:45.638Z,9.40
2017-10-11T12:06:14.519Z,8.17
2017-10-11T12:08:43.373Z,7.77
2017-10-11T12:11:12.248Z,9.27
2017-10-11T12:13:41.100Z,7.13
2017-10-11T12:16:09.978Z,6.33
2017-10-11T12:18:38.841Z,8.20
2017-10-11T12:21:07.711Z,7.40
2017-10-11T12:23:36.577Z,10.50
2017-10-11T12:26:05.456Z,7.20
2017-10-11T12:28:34.312Z,8.23
2017-10-11T12:31:03.170Z,8.60
2017-10-11T12:33:32.041Z,8.63
2017-10-11T12:36:00.901Z,9.57
2017-10-11T12:38:29.777Z,9.40
2017-10-11T12:40:58.644Z,7.43
2017-10-11T12:43:27.532Z,8.00
2017-10-11T12:45:56.393Z,8.90
2017-10-11T12:48:25.276Z,9.00
2017-10-11T12:50:54.135Z,8.17
2017-10-11T12:53:23.008Z,7.20
2017-10-11T12:55:51.867Z,7.53
2017-10-11T12:58:20.740Z,6.93
2017-10-11T13:00:49.596Z,7.00
2017-10-11T13:03:18.468Z,7.27
2017-10-11T13:05:47.437Z,7.03
2017-10-11T13:08:16.292Z,6.50
2017-10-11T13:10:45.168Z,6.73
2017-10-11T13:13:14.021Z,6.57
2017-10-11T13:15:42.895Z,5.97
2017-10-11T13:18:11.749Z,6.00
2017-10-11T13:20:40.620Z,5.53
2017-10-11T13:23:09.476Z,6.03
2017-10-11T13:25:38.349Z,7.37
2017-10-11T13:28:07.212Z,6.23
2017-10-11T13:30:36.143Z,5.53
2017-10-11T13:33:04.997Z,5.80
2017-10-11T13:35:33.875Z,5.83
2017-10-11T13:38:02.737Z,5.70
2017-10-11T13:40:31.622Z,5.67
2017-10-11T13:43:00.487Z,5.57
2017-10-11T13:45:29.366Z,5.73
2017-10-11T13:47:58.233Z,6.50
2017-10-11T13:50:27.109Z,5.47
2017-10-11T13:52:55.964Z,7.03
2017-10-11T13:55:34.381Z,7.17
2017-10-11T13:58:03.236Z,7.50
2017-10-11T14:00:32.092Z,7.20
2017-10-11T14:03:00.964Z,8.13
2017-10-11T14:05:29.816Z,8.57
2017-10-11T14:07:58.692Z,6.97
2017-10-11T14:10:27.548Z,7.57
2017-10-11T14:12:56.420Z,7.83
2017-10-11T14:15:25.278Z,8.07
2017-10-11T14:17:54.153Z,7.57
2017-10-11T14:20:23.017Z,5.87
2017-10-11T14:22:51.897Z,6.70
2017-10-11T14:25:20.796Z,8.40
2017-10-11T14:27:49.673Z,6.70
2017-10-11T14:30:18.536Z,7.57
2017-10-11T14:32:47.441Z,8.83
2017-10-11T14:35:16.297Z,7.43
2017-10-11T14:37:45.177Z,8.27
2017-10-11T14:40:14.032Z,7.67
2017-10-11T14:42:42.907Z,6.07
2017-10-11T14:45:11.811Z,7.43
2017-10-11T14:47:40.685Z,8.23
2017-10-11T14:50:09.541Z,6.27
2017-10-11T14:52:38.404Z,8.13
2017-10-11T14:55:07.272Z,5.53
2017-10-11T14:57:36.137Z,6.37
2017-10-11T15:00:05.012Z,7.30
2017-10-11T15:02:33.869Z,5.53
2017-10-11T15:05:02.740Z,6.40
2017-10-11T15:07:31.600Z,6.83
2017-10-11T15:10:00.475Z,6.20
2017-10-11T15:12:29.338Z,6.00
2017-10-11T15:14:58.212Z,6.90
2017-10-11T15:17:27.073Z,6.43
2017-10-11T15:19:55.949Z,5.87
2017-10-11T15:22:24.804Z,5.70
2017-10-11T15:24:53.677Z,6.60
2017-10-11T15:27:22.532Z,5.20
2017-10-11T15:29:51.407Z,5.77
2017-10-11T15:32:20.268Z,6.00
2017-10-11T15:34:49.125Z,5.03
2017-10-11T15:37:18.008Z,4.90
2017-10-11T15:39:46.868Z,5.43
2017-10-11T15:42:15.744Z,5.27
2017-10-11T15:44:44.619Z,6.37
2017-10-11T15:47:13.489Z,4.67
2017-10-11T15:49:42.350Z,5.20
2017-10-11T15:52:11.230Z,6.10
2017-10-11T15:54:40.084Z,4.27
2017-10-11T15:57:08.953Z,5.50
2017-10-11T15:59:37.833Z,5.60
2017-10-11T16:02:06.709Z,4.87
2017-10-11T16:04:35.576Z,5.70
2017-10-11T16:07:04.445Z,5.50
2017-10-11T16:09:33.304Z,4.33
2017-10-11T16:12:02.176Z,4.80
2017-10-11T16:14:31.032Z,4.27
2017-10-11T16:16:59.914Z,4.50
2017-10-11T16:19:28.773Z,4.60
2017-10-11T16:21:57.635Z,6.57
2017-10-11T16:24:26.512Z,3.77
2017-10-11T16:26:55.368Z,4.93
2017-10-11T16:29:24.240Z,5.10
2017-10-11T16:31:53.128Z,4.40
2017-10-11T16:34:22.002Z,3.50
2017-10-11T16:36:50.858Z,4.50
2017-10-11T16:39:19.732Z,4.37
2017-10-11T16:41:48.598Z,4.93
2017-10-11T16:44:17.484Z,4.33
2017-10-11T16:46:46.336Z,5.10
2017-10-11T16:49:15.212Z,4.47
2017-10-11T16:51:44.063Z,4.53
2017-10-11T16:54:12.936Z,5.03
2017-10-11T16:56:41.789Z,5.50
2017-10-11T16:59:10.664Z,4.90
2017-10-11T17:01:39.517Z,3.83
2017-10-11T17:04:08.394Z,4.37
2017-10-11T17:06:37.248Z,4.73
2017-10-11T17:09:06.104Z,6.07
2017-10-11T17:11:34.981Z,5.07
2017-10-11T17:14:03.836Z,6.20
2017-10-11T17:16:32.720Z,5.40
2017-10-11T17:19:01.572Z,4.77
2017-10-11T17:21:30.491Z,4.70
2017-10-11T17:23:59.356Z,5.57
2017-10-11T17:26:28.237Z,4.97
2017-10-11T17:28:57.101Z,5.30
2017-10-11T17:31:25.980Z,5.20
2017-10-11T17:33:54.840Z,5.00
2017-10-11T17:36:23.724Z,5.17
2017-10-11T17:38:52.580Z,5.23
2017-10-11T17:41:21.515Z,10.93
2017-10-11T17:43:50.377Z,5.67
2017-10-11T17:46:19.252Z,5.03
2017-10-11T17:48:48.115Z,5.20
2017-10-11T17:51:17.042Z,5.30
2017-10-11T17:53:45.900Z,5.70
2017-10-11T17:56:14.772Z,7.83
2017-10-11T17:58:43.631Z,5.50
2017-10-11T18:01:12.504Z,6.97
2017-10-11T18:03:41.365Z,6.57
2017-10-11T18:06:10.220Z,6.13
2017-10-11T18:08:39.097Z,5.20
2017-10-11T18:11:07.956Z,6.30
2017-10-11T18:13:36.842Z,5.50
2017-10-11T18:16:05.705Z,5.13
2017-10-11T18:18:34.582Z,6.00
2017-10-11T18:21:03.444Z,5.47
2017-10-11T18:23:32.320Z,5.87
2017-10-11T18:26:01.177Z,7.20
2017-10-11T18:28:30.048Z,5.67
2017-10-11T18:30:58.904Z,6.47
2017-10-11T18:33:27.773Z,5.20
2017-10-11T18:35:56.634Z,6.37
2017-10-11T18:38:25.512Z,5.77
2017-10-11T18:40:54.368Z,5.93
2017-10-11T18:43:23.239Z,5.90
2017-10-11T18:45:52.096Z,5.23
2017-10-11T18:48:20.977Z,5.80
2017-10-11T18:50:49.841Z,7.93
2017-10-11T18:53:18.707Z,7.93
2017-10-11T18:55:47.574Z,5.90
2017-10-11T18:58:16.451Z,5.50
2017-10-11T19:00:45.311Z,6.10
2017-10-11T19:03:14.172Z,6.13
2017-10-11T19:05:43.044Z,6.70
2017-10-11T19:08:11.901Z,5.67
2017-10-11T19:10:40.778Z,6.30
2017-10-11T19:13:09.636Z,5.60
2017-10-11T19:15:38.504Z,6.63
2017-10-11T19:18:07.364Z,8.30
2017-10-11T19:20:36.249Z,7.07
2017-10-11T19:23:05.107Z,8.07
2017-10-11T19:25:33.984Z,6.30
2017-10-11T19:28:02.840Z,6.70
2017-10-11T19:30:31.725Z,6.60
2017-10-11T19:33:00.589Z,6.47
2017-10-11T19:35:29.479Z,7.00
2017-10-11T19:37:58.341Z,6.90
2017-10-11T19:40:27.201Z,6.30
2017-10-11T19:42:56.083Z,6.87
2017-10-11T19:45:24.940Z,5.90
2017-10-11T19:47:53.808Z,7.00
2017-10-11T19:50:22.669Z,7.67
2017-10-11T19:52:51.542Z,6.23
2017-10-11T19:55:20.392Z,6.57
2017-10-11T19:57:49.268Z,6.67
2017-10-11T20:00:33.007Z,6.33
2017-10-11T20:03:01.896Z,7.30
2017-10-11T20:05:30.818Z,6.27
2017-10-11T20:07:59.712Z,6.20
2017-10-11T20:10:28.573Z,7.90
2017-10-11T20:12:57.452Z,9.60
2017-10-11T20:15:26.308Z,7.97
2017-10-11T20:17:55.176Z,7.13
2017-10-11T20:20:24.038Z,8.57
2017-10-11T20:22:52.951Z,6.10
2017-10-11T20:25:21.896Z,6.97
2017-10-11T20:27:51.576Z,6.63
2017-10-11T20:30:20.469Z,6.40
2017-10-11T20:32:49.328Z,7.27
2017-10-11T20:35:18.202Z,7.17
2017-10-11T20:37:47.071Z,6.47
2017-10-11T20:40:15.974Z,7.23
2017-10-11T20:42:44.849Z,6.90
2017-10-11T20:45:13.733Z,6.50
2017-10-11T20:47:42.596Z,6.70
2017-10-11T20:50:11.478Z,6.13
2017-10-11T20:52:40.337Z,6.50
2017-10-11T20:55:09.216Z,6.37
2017-10-11T20:57:38.076Z,7.27
2017-10-11T21:00:06.953Z,6.37
2017-10-11T21:02:35.808Z,6.57
2017-10-11T21:05:04.679Z,7.40
2017-10-11T21:07:33.540Z,8.30
2017-10-11T21:10:02.441Z,6.40
2017-10-11T21:12:31.295Z,6.20
2017-10-11T21:15:00.144Z,7.03
2017-10-11T21:17:29.017Z,5.63
2017-10-11T21:19:57.872Z,6.60
2017-10-11T21:22:26.744Z,6.30
2017-10-11T21:24:55.604Z,6.40
2017-10-11T21:27:24.475Z,4.63
2017-10-11T21:29:53.320Z,5.17
2017-10-11T21:32:22.197Z,6.50
2017-10-11T21:34:51.052Z,5.67
2017-10-11T21:37:19.928Z,4.70
2017-10-11T21:39:48.780Z,5.70
2017-10-11T21:42:17.656Z,4.80
2017-10-11T21:44:46.518Z,5.07
2017-10-11T21:47:15.390Z,6.00
2017-10-11T21:49:44.264Z,5.20
2017-10-11T21:52:13.137Z,5.27
2017-10-11T21:54:41.992Z,4.27
2017-10-11T21:57:10.860Z,4.13
2017-10-11T21:59:39.716Z,4.37
2017-10-11T22:02:08.596Z,4.00
2017-10-11T22:04:37.444Z,4.00
2017-10-11T22:07:06.384Z,12.63
2017-10-11T22:09:35.248Z,4.37
2017-10-11T22:12:04.114Z,4.03
2017-10-11T22:14:33.756Z,4.90
2017-10-11T22:17:02.612Z,4.47
2017-10-11T22:19:31.476Z,4.23
2017-10-11T22:22:00.344Z,4.10
2017-10-11T22:24:29.207Z,4.77
2017-10-11T22:26:58.061Z,4.43
2017-10-11T22:29:26.928Z,4.70
2017-10-11T22:31:55.784Z,4.60
2017-10-11T22:34:24.657Z,5.10
2017-10-11T22:36:53.508Z,4.30
2017-10-11T22:39:22.469Z,4.37
2017-10-11T22:41:51.324Z,4.90
2017-10-11T22:44:20.200Z,5.10
2017-10-11T22:46:49.060Z,3.77
2017-10-11T22:49:17.925Z,6.70
2017-10-11T22:51:46.797Z,4.90
2017-10-11T22:54:15.734Z,4.20
2017-10-11T22:56:44.600Z,4.13
2017-10-11T22:59:13.464Z,4.03
2017-10-11T23:01:42.336Z,3.67
2017-10-11T23:04:11.190Z,3.53
2017-10-11T23:06:40.052Z,3.77
2017-10-11T23:09:08.905Z,4.47
2017-10-11T23:11:37.779Z,4.10
2017-10-11T23:14:06.631Z,4.10
2017-10-11T23:16:35.505Z,3.80
2017-10-11T23:19:04.368Z,3.80
2017-10-11T23:21:33.332Z,4.43
2017-10-11T23:24:02.189Z,3.57
2017-10-11T23:26:31.068Z,4.10
2017-10-11T23:28:59.929Z,4.60
2017-10-11T23:31:28.804Z,4.20
2017-10-11T23:33:57.668Z,6.00
2017-10-11T23:36:26.544Z,5.20
2017-10-11T23:38:55.400Z,3.63
2017-10-11T23:41:24.272Z,3.70
2017-10-11T23:43:53.128Z,3.60
2017-10-11T23:46:22.004Z,3.37
2017-10-11T23:48:50.866Z,3.73
2017-10-11T23:51:19.724Z,3.63
2017-10-11T23:53:48.593Z,5.60
2017-10-11T23:56:17.460Z,4.73
2017-10-11T23:58:46.341Z,3.73
